sensor_id;sensor_type;location;lat;lon;timestamp;P1;durP1;ratioP1;P2;durP2;ratioP2
65182;SDS011;51771;51.068;-1.780;2023-05-10T00:01:38;5.93;;;2.27;;
65182;SDS011;51771;51.068;-1.780;2023-05-10T00:04:04;8.20;;;2.30;;
65182;SDS011;51771;51.068;-1.780;2023-05-10T00:06:29;8.18;;;2.67;;
65182;SDS011;51771;51.068;-1.780;2023-05-10T00:08:55;4.57;;;2.17;;
65182;SDS011;51771;51.068;-1.780;2023-05-10T00:11:20;8.17;;;2.00;;
65182;SDS011;51771;51.068;-1.780;2023-05-10T00:13:45;6.35;;;1.92;;
65182;SDS011;51771;51.068;-1.780;2023-05-10T00:16:11;4.85;;;2.38;;
65182;SDS011;51771;51.068;-1.780;2023-05-10T00:18:37;7.10;;;2.75;;
65182;SDS011;51771;51.068;-1.780;2023-05-10T00:21:03;7.65;;;2.70;;
65182;SDS011;51771;51.068;-1.780;2023-05-10T00:23:28;8.07;;;2.95;;
65182;SDS011;51771;51.068;-1.780;2023-05-10T00:25:53;4.63;;;2.40;;
65182;SDS011;51771;51.068;-1.780;2023-05-10T00:28:19;6.53;;;2.93;;
65182;SDS011;51771;51.068;-1.780;2023-05-10T00:30:44;4.68;;;1.83;;
65182;SDS011;51771;51.068;-1.780;2023-05-10T00:33:09;5.88;;;2.67;;
65182;SDS011;51771;51.068;-1.780;2023-05-10T00:35:36;6.85;;;2.83;;
65182;SDS011;51771;51.068;-1.780;2023-05-10T00:38:02;5.88;;;1.90;;
65182;SDS011;51771;51.068;-1.780;2023-05-10T00:40:28;5.18;;;2.58;;
65182;SDS011;51771;51.068;-1.780;2023-05-10T00:42:53;5.72;;;2.40;;
65182;SDS011;51771;51.068;-1.780;2023-05-10T00:45:19;6.53;;;2.60;;
65182;SDS011;51771;51.068;-1.780;2023-05-10T00:47:44;6.80;;;3.05;;
65182;SDS011;51771;51.068;-1.780;2023-05-10T00:50:09;5.72;;;2.08;;
65182;SDS011;51771;51.068;-1.780;2023-05-10T00:52:34;5.30;;;2.15;;
65182;SDS011;51771;51.068;-1.780;2023-05-10T00:55:00;4.60;;;1.80;;
65182;SDS011;51771;51.068;-1.780;2023-05-10T00:57:25;7.45;;;2.85;;
65182;SDS011;51771;51.068;-1.780;2023-05-10T00:59:50;4.35;;;2.40;;
65182;SDS011;51771;51.068;-1.780;2023-05-10T01:02:16;6.60;;;2.30;;
65182;SDS011;51771;51.068;-1.780;2023-05-10T01:04:41;4.97;;;2.13;;
65182;SDS011;51771;51.068;-1.780;2023-05-10T01:07:07;4.78;;;2.10;;
65182;SDS011;51771;51.068;-1.780;2023-05-10T01:09:33;6.40;;;2.80;;
65182;SDS011;51771;51.068;-1.780;2023-05-10T01:11:58;7.97;;;2.20;;
65182;SDS011;51771;51.068;-1.780;2023-05-10T01:14:24;8.45;;;2.47;;
65182;SDS011;51771;51.068;-1.780;2023-05-10T01:16:50;5.28;;;2.13;;
65182;SDS011;51771;51.068;-1.780;2023-05-10T01:21:53;9.57;;;2.17;;
65182;SDS011;51771;51.068;-1.780;2023-05-10T01:24:35;6.55;;;2.35;;
65182;SDS011;51771;51.068;-1.780;2023-05-10T01:29:58;4.60;;;1.70;;
65182;SDS011;51771;51.068;-1.780;2023-05-10T01:32:27;5.05;;;1.40;;
65182;SDS011;51771;51.068;-1.780;2023-05-10T01:37:25;5.07;;;1.97;;
65182;SDS011;51771;51.068;-1.780;2023-05-10T01:40:11;6.25;;;1.80;;
65182;SDS011;51771;51.068;-1.780;2023-05-10T01:42:40;4.68;;;2.38;;
65182;SDS011;51771;51.068;-1.780;2023-05-10T01:47:54;7.65;;;2.45;;
65182;SDS011;51771;51.068;-1.780;2023-05-10T01:50:27;6.57;;;1.63;;
65182;SDS011;51771;51.068;-1.780;2023-05-10T01:52:54;4.65;;;2.00;;
65182;SDS011;51771;51.068;-1.780;2023-05-10T01:55:20;3.92;;;1.60;;
65182;SDS011;51771;51.068;-1.780;2023-05-10T01:57:46;5.15;;;1.67;;
65182;SDS011;51771;51.068;-1.780;2023-05-10T02:00:13;5.30;;;1.42;;
65182;SDS011;51771;51.068;-1.780;2023-05-10T02:02:39;4.10;;;1.65;;
65182;SDS011;51771;51.068;-1.780;2023-05-10T02:05:05;3.92;;;1.95;;
65182;SDS011;51771;51.068;-1.780;2023-05-10T02:07:31;3.95;;;1.83;;
65182;SDS011;51771;51.068;-1.780;2023-05-10T02:09:58;2.72;;;1.17;;
65182;SDS011;51771;51.068;-1.780;2023-05-10T02:12:24;6.13;;;1.60;;
65182;SDS011;51771;51.068;-1.780;2023-05-10T02:14:50;6.35;;;1.63;;
65182;SDS011;51771;51.068;-1.780;2023-05-10T02:17:16;2.88;;;1.30;;
65182;SDS011;51771;51.068;-1.780;2023-05-10T02:19:41;2.70;;;1.20;;
65182;SDS011;51771;51.068;-1.780;2023-05-10T02:22:08;5.38;;;1.92;;
65182;SDS011;51771;51.068;-1.780;2023-05-10T02:24:33;2.00;;;0.85;;
65182;SDS011;51771;51.068;-1.780;2023-05-10T02:27:00;9.57;;;1.80;;
65182;SDS011;51771;51.068;-1.780;2023-05-10T02:29:26;2.67;;;0.98;;
65182;SDS011;51771;51.068;-1.780;2023-05-10T02:31:52;4.15;;;1.50;;
65182;SDS011;51771;51.068;-1.780;2023-05-10T02:34:18;2.03;;;0.82;;
65182;SDS011;51771;51.068;-1.780;2023-05-10T02:36:44;3.47;;;0.88;;
65182;SDS011;51771;51.068;-1.780;2023-05-10T02:39:09;3.92;;;1.20;;
65182;SDS011;51771;51.068;-1.780;2023-05-10T02:41:37;4.90;;;1.35;;
65182;SDS011;51771;51.068;-1.780;2023-05-10T02:44:03;5.35;;;1.08;;
65182;SDS011;51771;51.068;-1.780;2023-05-10T02:46:31;3.92;;;1.42;;
65182;SDS011;51771;51.068;-1.780;2023-05-10T02:48:56;2.92;;;0.73;;
65182;SDS011;51771;51.068;-1.780;2023-05-10T02:51:24;5.97;;;1.42;;
65182;SDS011;51771;51.068;-1.780;2023-05-10T02:53:50;5.35;;;0.93;;
65182;SDS011;51771;51.068;-1.780;2023-05-10T02:56:20;2.70;;;0.85;;
65182;SDS011;51771;51.068;-1.780;2023-05-10T02:58:48;3.53;;;0.85;;
65182;SDS011;51771;51.068;-1.780;2023-05-10T03:01:13;4.50;;;1.33;;
65182;SDS011;51771;51.068;-1.780;2023-05-10T03:03:39;4.22;;;1.77;;
65182;SDS011;51771;51.068;-1.780;2023-05-10T03:06:04;2.65;;;0.82;;
65182;SDS011;51771;51.068;-1.780;2023-05-10T03:08:29;3.00;;;0.63;;
65182;SDS011;51771;51.068;-1.780;2023-05-10T03:13:34;2.92;;;0.90;;
65182;SDS011;51771;51.068;-1.780;2023-05-10T03:16:44;3.30;;;1.10;;
65182;SDS011;51771;51.068;-1.780;2023-05-10T03:19:02;2.83;;;1.33;;
65182;SDS011;51771;51.068;-1.780;2023-05-10T03:21:30;2.47;;;1.00;;
65182;SDS011;51771;51.068;-1.780;2023-05-10T03:26:23;2.50;;;0.83;;
65182;SDS011;51771;51.068;-1.780;2023-05-10T03:28:49;2.30;;;0.77;;
65182;SDS011;51771;51.068;-1.780;2023-05-10T03:31:14;8.40;;;1.48;;
65182;SDS011;51771;51.068;-1.780;2023-05-10T03:33:46;3.38;;;1.00;;
65182;SDS011;51771;51.068;-1.780;2023-05-10T03:36:12;10.40;;;2.08;;
65182;SDS011;51771;51.068;-1.780;2023-05-10T03:38:37;3.37;;;0.73;;
65182;SDS011;51771;51.068;-1.780;2023-05-10T03:41:02;2.90;;;1.80;;
65182;SDS011;51771;51.068;-1.780;2023-05-10T03:43:27;2.23;;;0.50;;
65182;SDS011;51771;51.068;-1.780;2023-05-10T03:46:01;2.33;;;0.87;;
65182;SDS011;51771;51.068;-1.780;2023-05-10T03:48:36;8.25;;;1.17;;
65182;SDS011;51771;51.068;-1.780;2023-05-10T03:51:01;5.73;;;1.27;;
65182;SDS011;51771;51.068;-1.780;2023-05-10T03:53:27;4.88;;;0.80;;
65182;SDS011;51771;51.068;-1.780;2023-05-10T03:55:52;2.47;;;0.80;;
65182;SDS011;51771;51.068;-1.780;2023-05-10T03:58:17;5.35;;;1.00;;
65182;SDS011;51771;51.068;-1.780;2023-05-10T04:00:43;2.63;;;0.85;;
65182;SDS011;51771;51.068;-1.780;2023-05-10T04:03:09;2.80;;;1.10;;
65182;SDS011;51771;51.068;-1.780;2023-05-10T04:05:35;2.23;;;0.73;;
65182;SDS011;51771;51.068;-1.780;2023-05-10T04:08:01;2.75;;;1.10;;
65182;SDS011;51771;51.068;-1.780;2023-05-10T04:10:26;2.67;;;1.20;;
65182;SDS011;51771;51.068;-1.780;2023-05-10T04:12:51;3.03;;;1.30;;
65182;SDS011;51771;51.068;-1.780;2023-05-10T04:15:16;2.78;;;1.40;;
65182;SDS011;51771;51.068;-1.780;2023-05-10T04:17:41;2.97;;;0.63;;
65182;SDS011;51771;51.068;-1.780;2023-05-10T04:20:07;2.58;;;0.85;;
65182;SDS011;51771;51.068;-1.780;2023-05-10T04:22:33;5.88;;;1.30;;
65182;SDS011;51771;51.068;-1.780;2023-05-10T04:24:58;3.15;;;1.63;;
65182;SDS011;51771;51.068;-1.780;2023-05-10T04:27:23;2.63;;;1.10;;
65182;SDS011;51771;51.068;-1.780;2023-05-10T04:29:48;3.63;;;1.10;;
65182;SDS011;51771;51.068;-1.780;2023-05-10T04:32:14;3.23;;;0.70;;
65182;SDS011;51771;51.068;-1.780;2023-05-10T04:34:41;4.00;;;0.90;;
65182;SDS011;51771;51.068;-1.780;2023-05-10T04:37:06;2.50;;;0.77;;
65182;SDS011;51771;51.068;-1.780;2023-05-10T04:39:32;3.78;;;1.10;;
65182;SDS011;51771;51.068;-1.780;2023-05-10T04:41:57;7.03;;;1.25;;
65182;SDS011;51771;51.068;-1.780;2023-05-10T04:44:23;6.30;;;0.85;;
65182;SDS011;51771;51.068;-1.780;2023-05-10T04:46:48;6.45;;;1.02;;
65182;SDS011;51771;51.068;-1.780;2023-05-10T04:49:13;2.93;;;0.93;;
65182;SDS011;51771;51.068;-1.780;2023-05-10T04:51:39;2.25;;;1.35;;
65182;SDS011;51771;51.068;-1.780;2023-05-10T04:54:04;3.60;;;1.25;;
65182;SDS011;51771;51.068;-1.780;2023-05-10T04:56:30;6.70;;;0.95;;
65182;SDS011;51771;51.068;-1.780;2023-05-10T04:58:55;2.88;;;0.70;;
65182;SDS011;51771;51.068;-1.780;2023-05-10T05:01:20;2.63;;;1.10;;
65182;SDS011;51771;51.068;-1.780;2023-05-10T05:03:45;5.03;;;1.00;;
65182;SDS011;51771;51.068;-1.780;2023-05-10T05:06:11;2.28;;;1.00;;
65182;SDS011;51771;51.068;-1.780;2023-05-10T05:08:36;2.40;;;1.05;;
65182;SDS011;51771;51.068;-1.780;2023-05-10T05:11:01;6.45;;;1.40;;
65182;SDS011;51771;51.068;-1.780;2023-05-10T05:13:26;3.50;;;1.15;;
65182;SDS011;51771;51.068;-1.780;2023-05-10T05:15:52;5.00;;;1.05;;
65182;SDS011;51771;51.068;-1.780;2023-05-10T05:18:17;3.97;;;1.00;;
65182;SDS011;51771;51.068;-1.780;2023-05-10T05:20:42;2.85;;;1.00;;
65182;SDS011;51771;51.068;-1.780;2023-05-10T05:23:07;5.20;;;1.08;;
65182;SDS011;51771;51.068;-1.780;2023-05-10T05:25:32;8.97;;;1.70;;
65182;SDS011;51771;51.068;-1.780;2023-05-10T05:27:58;3.63;;;1.00;;
65182;SDS011;51771;51.068;-1.780;2023-05-10T05:30:23;6.97;;;2.00;;
65182;SDS011;51771;51.068;-1.780;2023-05-10T05:32:48;7.30;;;1.37;;
65182;SDS011;51771;51.068;-1.780;2023-05-10T05:35:13;4.28;;;1.20;;
65182;SDS011;51771;51.068;-1.780;2023-05-10T05:37:39;3.15;;;1.10;;
65182;SDS011;51771;51.068;-1.780;2023-05-10T05:40:05;11.43;;;2.00;;
65182;SDS011;51771;51.068;-1.780;2023-05-10T05:42:30;5.28;;;1.27;;
65182;SDS011;51771;51.068;-1.780;2023-05-10T05:44:56;6.70;;;1.23;;
65182;SDS011;51771;51.068;-1.780;2023-05-10T05:47:22;8.85;;;1.70;;
65182;SDS011;51771;51.068;-1.780;2023-05-10T05:49:47;4.40;;;1.45;;
65182;SDS011;51771;51.068;-1.780;2023-05-10T05:52:12;7.17;;;1.10;;
65182;SDS011;51771;51.068;-1.780;2023-05-10T05:54:38;3.95;;;1.10;;
65182;SDS011;51771;51.068;-1.780;2023-05-10T05:57:03;4.50;;;1.33;;
65182;SDS011;51771;51.068;-1.780;2023-05-10T05:59:28;6.10;;;1.33;;
65182;SDS011;51771;51.068;-1.780;2023-05-10T06:01:54;7.43;;;1.55;;
65182;SDS011;51771;51.068;-1.780;2023-05-10T06:04:19;8.40;;;1.47;;
65182;SDS011;51771;51.068;-1.780;2023-05-10T06:06:44;3.20;;;1.50;;
65182;SDS011;51771;51.068;-1.780;2023-05-10T06:09:10;6.63;;;1.30;;
65182;SDS011;51771;51.068;-1.780;2023-05-10T06:11:35;3.95;;;1.45;;
65182;SDS011;51771;51.068;-1.780;2023-05-10T06:14:01;4.32;;;1.33;;
65182;SDS011;51771;51.068;-1.780;2023-05-10T06:16:26;5.90;;;1.23;;
65182;SDS011;51771;51.068;-1.780;2023-05-10T06:18:52;3.15;;;1.13;;
65182;SDS011;51771;51.068;-1.780;2023-05-10T06:21:17;6.57;;;1.50;;
65182;SDS011;51771;51.068;-1.780;2023-05-10T06:23:42;4.85;;;1.25;;
65182;SDS011;51771;51.068;-1.780;2023-05-10T06:26:07;2.90;;;1.10;;
65182;SDS011;51771;51.068;-1.780;2023-05-10T06:28:33;5.47;;;1.45;;
65182;SDS011;51771;51.068;-1.780;2023-05-10T06:30:58;4.90;;;1.10;;
65182;SDS011;51771;51.068;-1.780;2023-05-10T06:33:23;2.28;;;0.82;;
65182;SDS011;51771;51.068;-1.780;2023-05-10T06:35:49;4.00;;;0.90;;
65182;SDS011;51771;51.068;-1.780;2023-05-10T06:38:14;4.80;;;1.37;;
65182;SDS011;51771;51.068;-1.780;2023-05-10T06:40:43;7.32;;;1.30;;
65182;SDS011;51771;51.068;-1.780;2023-05-10T06:43:08;3.40;;;1.05;;
65182;SDS011;51771;51.068;-1.780;2023-05-10T06:45:33;5.10;;;0.98;;
65182;SDS011;51771;51.068;-1.780;2023-05-10T06:47:58;5.77;;;1.13;;
65182;SDS011;51771;51.068;-1.780;2023-05-10T06:50:24;3.20;;;0.90;;
65182;SDS011;51771;51.068;-1.780;2023-05-10T06:52:50;2.80;;;0.90;;
65182;SDS011;51771;51.068;-1.780;2023-05-10T06:55:15;3.30;;;0.73;;
65182;SDS011;51771;51.068;-1.780;2023-05-10T06:57:40;3.88;;;1.10;;
65182;SDS011;51771;51.068;-1.780;2023-05-10T07:00:06;2.80;;;0.85;;
65182;SDS011;51771;51.068;-1.780;2023-05-10T07:02:31;3.58;;;0.80;;
65182;SDS011;51771;51.068;-1.780;2023-05-10T07:04:57;5.57;;;1.15;;
65182;SDS011;51771;51.068;-1.780;2023-05-10T07:07:22;2.25;;;0.80;;
65182;SDS011;51771;51.068;-1.780;2023-05-10T07:09:47;4.85;;;0.98;;
65182;SDS011;51771;51.068;-1.780;2023-05-10T07:12:13;4.82;;;1.33;;
65182;SDS011;51771;51.068;-1.780;2023-05-10T07:14:39;3.42;;;0.63;;
65182;SDS011;51771;51.068;-1.780;2023-05-10T07:17:04;5.40;;;1.38;;
65182;SDS011;51771;51.068;-1.780;2023-05-10T07:19:30;4.30;;;0.88;;
65182;SDS011;51771;51.068;-1.780;2023-05-10T07:21:57;2.10;;;1.05;;
65182;SDS011;51771;51.068;-1.780;2023-05-10T07:24:22;3.73;;;0.90;;
65182;SDS011;51771;51.068;-1.780;2023-05-10T07:26:48;2.38;;;0.73;;
65182;SDS011;51771;51.068;-1.780;2023-05-10T07:29:13;1.88;;;0.77;;
65182;SDS011;51771;51.068;-1.780;2023-05-10T07:31:38;3.30;;;1.50;;
65182;SDS011;51771;51.068;-1.780;2023-05-10T07:34:04;4.32;;;1.50;;
65182;SDS011;51771;51.068;-1.780;2023-05-10T07:36:29;4.72;;;2.08;;
65182;SDS011;51771;51.068;-1.780;2023-05-10T07:38:54;4.18;;;0.95;;
65182;SDS011;51771;51.068;-1.780;2023-05-10T07:41:22;5.07;;;0.98;;
65182;SDS011;51771;51.068;-1.780;2023-05-10T07:43:48;3.70;;;0.85;;
65182;SDS011;51771;51.068;-1.780;2023-05-10T07:46:13;2.45;;;0.80;;
65182;SDS011;51771;51.068;-1.780;2023-05-10T07:48:38;2.95;;;0.90;;
65182;SDS011;51771;51.068;-1.780;2023-05-10T07:51:03;3.33;;;1.27;;
65182;SDS011;51771;51.068;-1.780;2023-05-10T07:53:29;4.38;;;1.02;;
65182;SDS011;51771;51.068;-1.780;2023-05-10T07:55:54;2.70;;;0.77;;
65182;SDS011;51771;51.068;-1.780;2023-05-10T07:58:21;5.15;;;0.95;;
65182;SDS011;51771;51.068;-1.780;2023-05-10T08:00:47;4.00;;;0.60;;
65182;SDS011;51771;51.068;-1.780;2023-05-10T08:03:13;1.92;;;0.68;;
65182;SDS011;51771;51.068;-1.780;2023-05-10T08:05:38;4.30;;;0.88;;
65182;SDS011;51771;51.068;-1.780;2023-05-10T08:08:04;2.50;;;0.67;;
65182;SDS011;51771;51.068;-1.780;2023-05-10T08:10:29;2.45;;;0.70;;
65182;SDS011;51771;51.068;-1.780;2023-05-10T08:12:54;0.90;;;0.40;;
65182;SDS011;51771;51.068;-1.780;2023-05-10T08:15:20;4.20;;;1.13;;
65182;SDS011;51771;51.068;-1.780;2023-05-10T08:17:45;2.85;;;1.15;;
65182;SDS011;51771;51.068;-1.780;2023-05-10T08:20:10;2.70;;;0.80;;
65182;SDS011;51771;51.068;-1.780;2023-05-10T08:22:37;2.30;;;0.70;;
65182;SDS011;51771;51.068;-1.780;2023-05-10T08:25:03;1.57;;;0.57;;
65182;SDS011;51771;51.068;-1.780;2023-05-10T08:27:28;2.55;;;0.70;;
65182;SDS011;51771;51.068;-1.780;2023-05-10T08:29:53;3.55;;;0.60;;
65182;SDS011;51771;51.068;-1.780;2023-05-10T08:32:18;3.20;;;0.83;;
65182;SDS011;51771;51.068;-1.780;2023-05-10T08:34:44;5.57;;;0.90;;
65182;SDS011;51771;51.068;-1.780;2023-05-10T08:37:09;3.42;;;0.95;;
65182;SDS011;51771;51.068;-1.780;2023-05-10T08:39:37;5.75;;;0.82;;
65182;SDS011;51771;51.068;-1.780;2023-05-10T08:42:04;2.63;;;0.77;;
65182;SDS011;51771;51.068;-1.780;2023-05-10T08:44:32;3.85;;;0.88;;
65182;SDS011;51771;51.068;-1.780;2023-05-10T08:46:59;5.47;;;0.52;;
65182;SDS011;51771;51.068;-1.780;2023-05-10T08:49:26;5.25;;;1.00;;
65182;SDS011;51771;51.068;-1.780;2023-05-10T08:51:54;3.28;;;0.80;;
65182;SDS011;51771;51.068;-1.780;2023-05-10T08:56:44;3.93;;;0.90;;
65182;SDS011;51771;51.068;-1.780;2023-05-10T08:59:10;2.90;;;0.68;;
65182;SDS011;51771;51.068;-1.780;2023-05-10T09:01:37;2.67;;;0.80;;
65182;SDS011;51771;51.068;-1.780;2023-05-10T09:04:02;2.53;;;0.57;;
65182;SDS011;51771;51.068;-1.780;2023-05-10T09:06:29;2.92;;;0.70;;
65182;SDS011;51771;51.068;-1.780;2023-05-10T09:08:54;4.72;;;1.17;;
65182;SDS011;51771;51.068;-1.780;2023-05-10T09:11:20;5.90;;;1.10;;
65182;SDS011;51771;51.068;-1.780;2023-05-10T09:13:45;3.00;;;0.73;;
65182;SDS011;51771;51.068;-1.780;2023-05-10T09:16:11;3.30;;;0.82;;
65182;SDS011;51771;51.068;-1.780;2023-05-10T09:18:36;3.50;;;0.97;;
65182;SDS011;51771;51.068;-1.780;2023-05-10T09:21:01;3.97;;;0.60;;
65182;SDS011;51771;51.068;-1.780;2023-05-10T09:23:26;1.63;;;0.40;;
65182;SDS011;51771;51.068;-1.780;2023-05-10T09:26:04;1.75;;;0.73;;
65182;SDS011;51771;51.068;-1.780;2023-05-10T09:29:12;2.05;;;0.50;;
65182;SDS011;51771;51.068;-1.780;2023-05-10T09:31:18;2.25;;;0.63;;
65182;SDS011;51771;51.068;-1.780;2023-05-10T09:33:46;3.15;;;1.08;;
65182;SDS011;51771;51.068;-1.780;2023-05-10T09:36:13;3.10;;;0.73;;
65182;SDS011;51771;51.068;-1.780;2023-05-10T09:39:11;3.17;;;0.70;;
65182;SDS011;51771;51.068;-1.780;2023-05-10T09:41:30;3.28;;;0.60;;
65182;SDS011;51771;51.068;-1.780;2023-05-10T09:43:55;2.30;;;0.60;;
65182;SDS011;51771;51.068;-1.780;2023-05-10T09:46:21;3.90;;;0.90;;
65182;SDS011;51771;51.068;-1.780;2023-05-10T09:48:47;4.10;;;0.85;;
65182;SDS011;51771;51.068;-1.780;2023-05-10T09:51:22;4.63;;;1.10;;
65182;SDS011;51771;51.068;-1.780;2023-05-10T09:53:47;3.92;;;0.93;;
65182;SDS011;51771;51.068;-1.780;2023-05-10T09:56:32;2.40;;;0.80;;
65182;SDS011;51771;51.068;-1.780;2023-05-10T09:59:03;3.35;;;1.00;;
65182;SDS011;51771;51.068;-1.780;2023-05-10T10:01:29;3.33;;;0.65;;
65182;SDS011;51771;51.068;-1.780;2023-05-10T10:03:54;4.70;;;1.35;;
65182;SDS011;51771;51.068;-1.780;2023-05-10T10:06:22;3.92;;;0.90;;
65182;SDS011;51771;51.068;-1.780;2023-05-10T10:08:47;4.40;;;0.90;;
65182;SDS011;51771;51.068;-1.780;2023-05-10T10:11:13;4.40;;;1.20;;
65182;SDS011;51771;51.068;-1.780;2023-05-10T10:13:38;3.87;;;1.20;;
65182;SDS011;51771;51.068;-1.780;2023-05-10T10:16:03;3.10;;;0.83;;
65182;SDS011;51771;51.068;-1.780;2023-05-10T10:18:29;4.95;;;1.00;;
65182;SDS011;51771;51.068;-1.780;2023-05-10T10:20:55;4.10;;;1.20;;
65182;SDS011;51771;51.068;-1.780;2023-05-10T10:23:21;4.45;;;1.02;;
65182;SDS011;51771;51.068;-1.780;2023-05-10T10:25:46;2.72;;;0.80;;
65182;SDS011;51771;51.068;-1.780;2023-05-10T10:28:23;4.55;;;1.23;;
65182;SDS011;51771;51.068;-1.780;2023-05-10T10:30:49;5.15;;;0.88;;
65182;SDS011;51771;51.068;-1.780;2023-05-10T10:35:50;6.07;;;1.30;;
65182;SDS011;51771;51.068;-1.780;2023-05-10T10:38:17;3.67;;;0.98;;
65182;SDS011;51771;51.068;-1.780;2023-05-10T10:40:42;2.73;;;0.87;;
65182;SDS011;51771;51.068;-1.780;2023-05-10T10:48:38;1.83;;;0.60;;
65182;SDS011;51771;51.068;-1.780;2023-05-10T10:51:03;2.17;;;0.75;;
65182;SDS011;51771;51.068;-1.780;2023-05-10T10:53:28;1.98;;;0.52;;
65182;SDS011;51771;51.068;-1.780;2023-05-10T10:58:32;2.90;;;0.65;;
65182;SDS011;51771;51.068;-1.780;2023-05-10T11:01:11;5.70;;;1.05;;
65182;SDS011;51771;51.068;-1.780;2023-05-10T11:03:37;5.30;;;0.82;;
65182;SDS011;51771;51.068;-1.780;2023-05-10T11:06:02;1.48;;;0.60;;
65182;SDS011;51771;51.068;-1.780;2023-05-10T11:08:28;2.03;;;0.60;;
65182;SDS011;51771;51.068;-1.780;2023-05-10T11:13:31;2.47;;;0.80;;
65182;SDS011;51771;51.068;-1.780;2023-05-10T11:15:57;1.83;;;0.57;;
65182;SDS011;51771;51.068;-1.780;2023-05-10T11:18:24;3.80;;;0.82;;
65182;SDS011;51771;51.068;-1.780;2023-05-10T11:21:00;2.38;;;0.60;;
65182;SDS011;51771;51.068;-1.780;2023-05-10T11:23:31;1.42;;;0.40;;
65182;SDS011;51771;51.068;-1.780;2023-05-10T11:25:56;3.67;;;0.82;;
65182;SDS011;51771;51.068;-1.780;2023-05-10T11:28:22;2.08;;;0.70;;
65182;SDS011;51771;51.068;-1.780;2023-05-10T11:30:47;3.13;;;0.82;;
65182;SDS011;51771;51.068;-1.780;2023-05-10T11:33:16;0.75;;;0.20;;
65182;SDS011;51771;51.068;-1.780;2023-05-10T11:35:41;1.30;;;0.47;;
65182;SDS011;51771;51.068;-1.780;2023-05-10T11:38:10;3.47;;;0.70;;
65182;SDS011;51771;51.068;-1.780;2023-05-10T11:40:36;1.65;;;0.50;;
65182;SDS011;51771;51.068;-1.780;2023-05-10T11:43:02;4.05;;;0.95;;
65182;SDS011;51771;51.068;-1.780;2023-05-10T11:45:28;2.83;;;0.73;;
65182;SDS011;51771;51.068;-1.780;2023-05-10T11:47:55;4.13;;;0.80;;
65182;SDS011;51771;51.068;-1.780;2023-05-10T11:50:20;2.60;;;0.70;;
65182;SDS011;51771;51.068;-1.780;2023-05-10T11:52:45;5.10;;;1.40;;
65182;SDS011;51771;51.068;-1.780;2023-05-10T11:55:15;4.65;;;1.00;;
65182;SDS011;51771;51.068;-1.780;2023-05-10T11:57:40;4.80;;;1.10;;
65182;SDS011;51771;51.068;-1.780;2023-05-10T12:00:07;1.88;;;0.43;;
65182;SDS011;51771;51.068;-1.780;2023-05-10T12:02:32;3.30;;;0.52;;
65182;SDS011;51771;51.068;-1.780;2023-05-10T12:04:58;3.42;;;0.82;;
65182;SDS011;51771;51.068;-1.780;2023-05-10T12:07:23;1.60;;;0.67;;
65182;SDS011;51771;51.068;-1.780;2023-05-10T12:12:39;5.10;;;0.60;;
65182;SDS011;51771;51.068;-1.780;2023-05-10T12:15:05;2.35;;;0.73;;
65182;SDS011;51771;51.068;-1.780;2023-05-10T12:17:31;3.58;;;0.80;;
65182;SDS011;51771;51.068;-1.780;2023-05-10T12:20:12;3.88;;;0.95;;
65182;SDS011;51771;51.068;-1.780;2023-05-10T12:22:38;1.65;;;0.60;;
65182;SDS011;51771;51.068;-1.780;2023-05-10T12:25:04;1.73;;;0.67;;
65182;SDS011;51771;51.068;-1.780;2023-05-10T12:27:32;2.33;;;0.68;;
65182;SDS011;51771;51.068;-1.780;2023-05-10T12:29:59;2.63;;;0.80;;
65182;SDS011;51771;51.068;-1.780;2023-05-10T12:32:36;2.35;;;0.60;;
65182;SDS011;51771;51.068;-1.780;2023-05-10T12:35:03;2.08;;;0.70;;
65182;SDS011;51771;51.068;-1.780;2023-05-10T12:37:28;3.10;;;0.65;;
65182;SDS011;51771;51.068;-1.780;2023-05-10T12:39:54;4.22;;;1.00;;
65182;SDS011;51771;51.068;-1.780;2023-05-10T12:42:19;3.00;;;0.63;;
65182;SDS011;51771;51.068;-1.780;2023-05-10T12:44:44;4.30;;;0.90;;
65182;SDS011;51771;51.068;-1.780;2023-05-10T12:47:09;3.60;;;0.93;;
65182;SDS011;51771;51.068;-1.780;2023-05-10T12:49:35;3.40;;;0.82;;
65182;SDS011;51771;51.068;-1.780;2023-05-10T12:52:01;3.10;;;0.57;;
65182;SDS011;51771;51.068;-1.780;2023-05-10T12:54:26;2.90;;;0.50;;
65182;SDS011;51771;51.068;-1.780;2023-05-10T12:56:51;3.43;;;0.57;;
65182;SDS011;51771;51.068;-1.780;2023-05-10T12:59:16;1.45;;;0.50;;
65182;SDS011;51771;51.068;-1.780;2023-05-10T13:01:41;1.43;;;0.57;;
65182;SDS011;51771;51.068;-1.780;2023-05-10T13:04:07;2.90;;;1.00;;
65182;SDS011;51771;51.068;-1.780;2023-05-10T13:06:32;3.40;;;0.87;;
65182;SDS011;51771;51.068;-1.780;2023-05-10T13:08:57;1.92;;;0.57;;
65182;SDS011;51771;51.068;-1.780;2023-05-10T13:11:22;5.03;;;0.70;;
65182;SDS011;51771;51.068;-1.780;2023-05-10T13:13:48;1.75;;;0.32;;
65182;SDS011;51771;51.068;-1.780;2023-05-10T13:16:13;0.83;;;0.30;;
65182;SDS011;51771;51.068;-1.780;2023-05-10T13:18:38;1.33;;;0.43;;
65182;SDS011;51771;51.068;-1.780;2023-05-10T13:21:04;1.05;;;0.38;;
65182;SDS011;51771;51.068;-1.780;2023-05-10T13:23:30;1.60;;;0.35;;
65182;SDS011;51771;51.068;-1.780;2023-05-10T13:25:55;4.32;;;0.50;;
65182;SDS011;51771;51.068;-1.780;2023-05-10T13:28:20;1.67;;;0.23;;
65182;SDS011;51771;51.068;-1.780;2023-05-10T13:30:46;3.00;;;0.55;;
65182;SDS011;51771;51.068;-1.780;2023-05-10T13:33:11;2.33;;;0.47;;
65182;SDS011;51771;51.068;-1.780;2023-05-10T13:35:36;1.90;;;0.67;;
65182;SDS011;51771;51.068;-1.780;2023-05-10T13:38:01;1.97;;;0.50;;
65182;SDS011;51771;51.068;-1.780;2023-05-10T13:40:27;1.67;;;0.60;;
65182;SDS011;51771;51.068;-1.780;2023-05-10T13:42:53;4.30;;;0.90;;
65182;SDS011;51771;51.068;-1.780;2023-05-10T13:45:18;3.17;;;0.77;;
65182;SDS011;51771;51.068;-1.780;2023-05-10T13:47:43;4.85;;;0.77;;
65182;SDS011;51771;51.068;-1.780;2023-05-10T13:50:08;3.92;;;0.90;;
65182;SDS011;51771;51.068;-1.780;2023-05-10T13:52:34;2.72;;;0.55;;
65182;SDS011;51771;51.068;-1.780;2023-05-10T13:55:00;3.50;;;1.25;;
65182;SDS011;51771;51.068;-1.780;2023-05-10T13:57:25;2.90;;;0.70;;
65182;SDS011;51771;51.068;-1.780;2023-05-10T13:59:51;2.63;;;0.75;;
65182;SDS011;51771;51.068;-1.780;2023-05-10T14:02:16;2.78;;;0.63;;
65182;SDS011;51771;51.068;-1.780;2023-05-10T14:04:41;3.35;;;0.30;;
65182;SDS011;51771;51.068;-1.780;2023-05-10T14:07:06;3.87;;;1.10;;
65182;SDS011;51771;51.068;-1.780;2023-05-10T14:09:32;2.63;;;0.60;;
65182;SDS011;51771;51.068;-1.780;2023-05-10T14:11:57;1.80;;;0.53;;
65182;SDS011;51771;51.068;-1.780;2023-05-10T14:14:22;1.70;;;0.57;;
65182;SDS011;51771;51.068;-1.780;2023-05-10T14:16:47;3.15;;;0.80;;
65182;SDS011;51771;51.068;-1.780;2023-05-10T14:19:13;1.80;;;0.50;;
65182;SDS011;51771;51.068;-1.780;2023-05-10T14:21:38;0.60;;;0.37;;
65182;SDS011;51771;51.068;-1.780;2023-05-10T14:24:03;1.30;;;0.40;;
65182;SDS011;51771;51.068;-1.780;2023-05-10T14:26:29;2.35;;;0.60;;
65182;SDS011;51771;51.068;-1.780;2023-05-10T14:28:54;0.22;;;0.20;;
65182;SDS011;51771;51.068;-1.780;2023-05-10T14:31:19;2.47;;;0.57;;
65182;SDS011;51771;51.068;-1.780;2023-05-10T14:33:49;2.55;;;0.30;;
65182;SDS011;51771;51.068;-1.780;2023-05-10T14:36:14;1.50;;;0.23;;
65182;SDS011;51771;51.068;-1.780;2023-05-10T14:38:40;1.10;;;0.38;;
65182;SDS011;51771;51.068;-1.780;2023-05-10T14:41:06;1.13;;;0.25;;
65182;SDS011;51771;51.068;-1.780;2023-05-10T14:43:31;0.50;;;0.22;;
65182;SDS011;51771;51.068;-1.780;2023-05-10T14:45:56;0.67;;;0.23;;
65182;SDS011;51771;51.068;-1.780;2023-05-10T14:48:22;1.98;;;0.45;;
65182;SDS011;51771;51.068;-1.780;2023-05-10T14:50:47;5.28;;;0.30;;
65182;SDS011;51771;51.068;-1.780;2023-05-10T14:53:12;0.68;;;0.20;;
65182;SDS011;51771;51.068;-1.780;2023-05-10T14:55:38;0.38;;;0.13;;
65182;SDS011;51771;51.068;-1.780;2023-05-10T14:58:04;0.65;;;0.30;;
65182;SDS011;51771;51.068;-1.780;2023-05-10T15:00:29;0.82;;;0.25;;
65182;SDS011;51771;51.068;-1.780;2023-05-10T15:02:55;1.20;;;0.30;;